sensor_id;sensor_type;location;lat;lon;timestamp;P1;durP1;ratioP1;P2;durP2;ratioP2
7211;SDS011;3647;48.792;9.802;2023-04-16T04:38:53;4.53;;;4.13;;
7211;SDS011;3647;48.792;9.802;2023-04-16T04:41:20;3.80;;;3.50;;
7211;SDS011;3647;48.792;9.802;2023-04-16T04:43:47;4.30;;;3.90;;
7211;SDS011;3647;48.792;9.802;2023-04-16T04:46:14;4.27;;;3.87;;
7211;SDS011;3647;48.792;9.802;2023-04-16T04:48:41;5.27;;;4.30;;
7211;SDS011;3647;48.792;9.802;2023-04-16T04:51:07;4.10;;;3.70;;
7211;SDS011;3647;48.792;9.802;2023-04-16T04:53:34;4.33;;;3.93;;
7211;SDS011;3647;48.792;9.802;2023-04-16T04:56:02;4.17;;;3.77;;
7211;SDS011;3647;48.792;9.802;2023-04-16T04:58:29;4.07;;;3.67;;
7211;SDS011;3647;48.792;9.802;2023-04-16T05:00:56;4.00;;;3.63;;
7211;SDS011;3647;48.792;9.802;2023-04-16T05:03:23;4.57;;;3.90;;
7211;SDS011;3647;48.792;9.802;2023-04-16T05:05:50;4.20;;;3.60;;
7211;SDS011;3647;48.792;9.802;2023-04-16T05:08:17;3.63;;;3.33;;
7211;SDS011;3647;48.792;9.802;2023-04-16T05:10:43;3.60;;;3.30;;
7211;SDS011;3647;48.792;9.802;2023-04-16T05:13:12;3.90;;;3.33;;
7211;SDS011;3647;48.792;9.802;2023-04-16T05:15:39;5.80;;;3.73;;
7211;SDS011;3647;48.792;9.802;2023-04-16T05:18:05;3.30;;;3.00;;
7211;SDS011;3647;48.792;9.802;2023-04-16T05:20:32;3.93;;;3.60;;
7211;SDS011;3647;48.792;9.802;2023-04-16T05:22:59;4.10;;;3.70;;
7211;SDS011;3647;48.792;9.802;2023-04-16T05:25:26;5.17;;;3.87;;
7211;SDS011;3647;48.792;9.802;2023-04-16T05:27:52;4.30;;;3.90;;
7211;SDS011;3647;48.792;9.802;2023-04-16T05:30:21;4.60;;;4.13;;
7211;SDS011;3647;48.792;9.802;2023-04-16T05:32:47;5.07;;;4.37;;
7211;SDS011;3647;48.792;9.802;2023-04-16T05:35:14;5.10;;;4.60;;
7211;SDS011;3647;48.792;9.802;2023-04-16T05:37:41;4.60;;;3.87;;
7211;SDS011;3647;48.792;9.802;2023-04-16T05:40:08;4.70;;;4.30;;
7211;SDS011;3647;48.792;9.802;2023-04-16T05:42:37;5.13;;;4.13;;
7211;SDS011;3647;48.792;9.802;2023-04-16T05:45:04;4.60;;;3.90;;
7211;SDS011;3647;48.792;9.802;2023-04-16T05:47:33;4.27;;;3.83;;
7211;SDS011;3647;48.792;9.802;2023-04-16T05:50:00;4.50;;;4.10;;
7211;SDS011;3647;48.792;9.802;2023-04-16T05:52:26;4.17;;;3.87;;
7211;SDS011;3647;48.792;9.802;2023-04-16T05:54:53;4.47;;;3.90;;
7211;SDS011;3647;48.792;9.802;2023-04-16T05:57:20;5.83;;;4.50;;
7211;SDS011;3647;48.792;9.802;2023-04-16T05:59:47;4.50;;;3.73;;
7211;SDS011;3647;48.792;9.802;2023-04-16T06:02:14;5.07;;;4.57;;
7211;SDS011;3647;48.792;9.802;2023-04-16T06:04:42;4.70;;;4.20;;
7211;SDS011;3647;48.792;9.802;2023-04-16T06:07:09;4.90;;;4.40;;
7211;SDS011;3647;48.792;9.802;2023-04-16T06:09:36;3.47;;;3.17;;
7211;SDS011;3647;48.792;9.802;2023-04-16T06:12:02;4.93;;;3.87;;
7211;SDS011;3647;48.792;9.802;2023-04-16T06:14:30;3.67;;;3.37;;
7211;SDS011;3647;48.792;9.802;2023-04-16T06:16:57;4.60;;;4.10;;
7211;SDS011;3647;48.792;9.802;2023-04-16T06:19:25;4.60;;;4.10;;
7211;SDS011;3647;48.792;9.802;2023-04-16T06:21:54;3.93;;;3.50;;
7211;SDS011;3647;48.792;9.802;2023-04-16T06:24:22;3.90;;;3.50;;
7211;SDS011;3647;48.792;9.802;2023-04-16T06:26:49;4.83;;;4.13;;
7211;SDS011;3647;48.792;9.802;2023-04-16T06:29:16;3.97;;;3.50;;
7211;SDS011;3647;48.792;9.802;2023-04-16T06:31:43;4.10;;;3.70;;
7211;SDS011;3647;48.792;9.802;2023-04-16T06:34:10;3.77;;;3.47;;
7211;SDS011;3647;48.792;9.802;2023-04-16T06:36:36;4.53;;;3.90;;
7211;SDS011;3647;48.792;9.802;2023-04-16T06:39:05;4.50;;;3.73;;
7211;SDS011;3647;48.792;9.802;2023-04-16T06:41:32;5.27;;;4.10;;
7211;SDS011;3647;48.792;9.802;2023-04-16T06:43:58;5.40;;;4.00;;
7211;SDS011;3647;48.792;9.802;2023-04-16T06:46:25;4.80;;;4.20;;
7211;SDS011;3647;48.792;9.802;2023-04-16T06:48:58;4.10;;;3.70;;
7211;SDS011;3647;48.792;9.802;2023-04-16T06:51:27;4.40;;;3.80;;
7211;SDS011;3647;48.792;9.802;2023-04-16T06:53:55;5.20;;;3.90;;
7211;SDS011;3647;48.792;9.802;2023-04-16T06:56:26;5.13;;;4.07;;
7211;SDS011;3647;48.792;9.802;2023-04-16T06:58:53;6.80;;;4.70;;
7211;SDS011;3647;48.792;9.802;2023-04-16T07:01:22;5.43;;;4.50;;
7211;SDS011;3647;48.792;9.802;2023-04-16T07:03:49;5.10;;;4.60;;
7211;SDS011;3647;48.792;9.802;2023-04-16T07:06:16;5.60;;;5.00;;
7211;SDS011;3647;48.792;9.802;2023-04-16T07:08:43;6.43;;;5.17;;
7211;SDS011;3647;48.792;9.802;2023-04-16T07:11:10;6.83;;;5.27;;
7211;SDS011;3647;48.792;9.802;2023-04-16T07:13:41;6.77;;;4.90;;
7211;SDS011;3647;48.792;9.802;2023-04-16T07:16:08;5.67;;;4.60;;
7211;SDS011;3647;48.792;9.802;2023-04-16T07:18:35;5.87;;;5.07;;
7211;SDS011;3647;48.792;9.802;2023-04-16T07:21:02;5.17;;;4.67;;
7211;SDS011;3647;48.792;9.802;2023-04-16T07:23:29;5.90;;;5.30;;
7211;SDS011;3647;48.792;9.802;2023-04-16T07:25:56;6.67;;;4.30;;
7211;SDS011;3647;48.792;9.802;2023-04-16T07:28:23;6.67;;;5.00;;
7211;SDS011;3647;48.792;9.802;2023-04-16T07:30:53;5.53;;;4.60;;
7211;SDS011;3647;48.792;9.802;2023-04-16T07:33:20;6.80;;;5.27;;
7211;SDS011;3647;48.792;9.802;2023-04-16T07:35:47;6.13;;;5.50;;
7211;SDS011;3647;48.792;9.802;2023-04-16T07:38:14;8.60;;;5.70;;
7211;SDS011;3647;48.792;9.802;2023-04-16T07:40:41;16.37;;;8.93;;
7211;SDS011;3647;48.792;9.802;2023-04-16T07:43:07;14.37;;;8.63;;
7211;SDS011;3647;48.792;9.802;2023-04-16T07:45:35;14.33;;;8.27;;
7211;SDS011;3647;48.792;9.802;2023-04-16T07:48:03;11.20;;;6.60;;
7211;SDS011;3647;48.792;9.802;2023-04-16T07:50:31;11.30;;;7.07;;
7211;SDS011;3647;48.792;9.802;2023-04-16T07:52:57;12.97;;;6.90;;
7211;SDS011;3647;48.792;9.802;2023-04-16T07:55:24;11.53;;;7.53;;
7211;SDS011;3647;48.792;9.802;2023-04-16T07:57:51;10.73;;;6.93;;
7211;SDS011;3647;48.792;9.802;2023-04-16T08:00:18;8.03;;;6.67;;
7211;SDS011;3647;48.792;9.802;2023-04-16T08:02:45;9.87;;;7.20;;
7211;SDS011;3647;48.792;9.802;2023-04-16T08:05:13;9.63;;;7.00;;
7211;SDS011;3647;48.792;9.802;2023-04-16T08:07:41;8.10;;;6.90;;
7211;SDS011;3647;48.792;9.802;2023-04-16T08:10:08;9.93;;;7.83;;
7211;SDS011;3647;48.792;9.802;2023-04-16T08:12:35;8.30;;;6.73;;
7211;SDS011;3647;48.792;9.802;2023-04-16T08:15:02;9.87;;;6.83;;
7211;SDS011;3647;48.792;9.802;2023-04-16T08:17:30;10.60;;;7.37;;
7211;SDS011;3647;48.792;9.802;2023-04-16T08:19:58;10.80;;;7.50;;
7211;SDS011;3647;48.792;9.802;2023-04-16T08:22:27;8.90;;;7.20;;
7211;SDS011;3647;48.792;9.802;2023-04-16T08:24:54;11.40;;;7.13;;
7211;SDS011;3647;48.792;9.802;2023-04-16T08:27:22;10.73;;;8.50;;
7211;SDS011;3647;48.792;9.802;2023-04-16T08:29:54;9.83;;;7.20;;
7211;SDS011;3647;48.792;9.802;2023-04-16T08:32:20;9.43;;;7.70;;
7211;SDS011;3647;48.792;9.802;2023-04-16T08:34:47;12.37;;;7.87;;
7211;SDS011;3647;48.792;9.802;2023-04-16T08:37:14;11.10;;;7.87;;
7211;SDS011;3647;48.792;9.802;2023-04-16T08:39:42;9.77;;;7.80;;
7211;SDS011;3647;48.792;9.802;2023-04-16T08:42:11;10.33;;;7.53;;
7211;SDS011;3647;48.792;9.802;2023-04-16T08:44:45;11.03;;;7.73;;
7211;SDS011;3647;48.792;9.802;2023-04-16T08:47:13;10.80;;;8.27;;
7211;SDS011;3647;48.792;9.802;2023-04-16T08:49:42;11.80;;;8.67;;
7211;SDS011;3647;48.792;9.802;2023-04-16T08:52:11;10.70;;;7.93;;
7211;SDS011;3647;48.792;9.802;2023-04-16T08:54:45;10.27;;;8.67;;
7211;SDS011;3647;48.792;9.802;2023-04-16T08:57:17;11.27;;;8.60;;
7211;SDS011;3647;48.792;9.802;2023-04-16T08:59:46;11.53;;;7.13;;
7211;SDS011;3647;48.792;9.802;2023-04-16T09:02:13;9.57;;;7.20;;
7211;SDS011;3647;48.792;9.802;2023-04-16T09:04:41;9.53;;;7.67;;
7211;SDS011;3647;48.792;9.802;2023-04-16T09:07:08;12.53;;;8.47;;
7211;SDS011;3647;48.792;9.802;2023-04-16T09:09:36;9.93;;;7.90;;
7211;SDS011;3647;48.792;9.802;2023-04-16T09:12:05;8.50;;;7.03;;
7211;SDS011;3647;48.792;9.802;2023-04-16T09:14:33;10.43;;;7.50;;
7211;SDS011;3647;48.792;9.802;2023-04-16T09:17:02;9.37;;;7.53;;
7211;SDS011;3647;48.792;9.802;2023-04-16T09:19:31;10.80;;;7.80;;
7211;SDS011;3647;48.792;9.802;2023-04-16T09:21:58;10.47;;;7.67;;
7211;SDS011;3647;48.792;9.802;2023-04-16T09:24:25;9.97;;;7.73;;
7211;SDS011;3647;48.792;9.802;2023-04-16T09:26:55;9.47;;;7.00;;
7211;SDS011;3647;48.792;9.802;2023-04-16T09:29:34;8.37;;;7.40;;
7211;SDS011;3647;48.792;9.802;2023-04-16T09:32:04;9.53;;;7.77;;
7211;SDS011;3647;48.792;9.802;2023-04-16T09:34:32;7.70;;;6.37;;
7211;SDS011;3647;48.792;9.802;2023-04-16T09:37:15;8.70;;;6.90;;
7211;SDS011;3647;48.792;9.802;2023-04-16T09:39:42;7.87;;;6.87;;
7211;SDS011;3647;48.792;9.802;2023-04-16T09:42:09;7.57;;;6.47;;
7211;SDS011;3647;48.792;9.802;2023-04-16T09:44:38;9.80;;;6.37;;
7211;SDS011;3647;48.792;9.802;2023-04-16T09:47:05;9.27;;;6.53;;
7211;SDS011;3647;48.792;9.802;2023-04-16T09:49:33;10.97;;;6.60;;
7211;SDS011;3647;48.792;9.802;2023-04-16T09:52:01;8.10;;;6.17;;
7211;SDS011;3647;48.792;9.802;2023-04-16T09:54:27;9.50;;;6.30;;
7211;SDS011;3647;48.792;9.802;2023-04-16T09:56:55;8.93;;;6.10;;
7211;SDS011;3647;48.792;9.802;2023-04-16T09:59:26;8.90;;;6.13;;
7211;SDS011;3647;48.792;9.802;2023-04-16T10:02:02;7.90;;;5.97;;
7211;SDS011;3647;48.792;9.802;2023-04-16T10:04:29;7.00;;;5.83;;
7211;SDS011;3647;48.792;9.802;2023-04-16T10:07:02;7.80;;;5.73;;
7211;SDS011;3647;48.792;9.802;2023-04-16T10:09:30;10.43;;;7.73;;
7211;SDS011;3647;48.792;9.802;2023-04-16T10:11:58;8.33;;;6.00;;
7211;SDS011;3647;48.792;9.802;2023-04-16T10:14:25;7.10;;;5.93;;
7211;SDS011;3647;48.792;9.802;2023-04-16T10:16:52;6.47;;;5.87;;
7211;SDS011;3647;48.792;9.802;2023-04-16T10:19:21;7.77;;;5.67;;
7211;SDS011;3647;48.792;9.802;2023-04-16T10:21:50;7.63;;;5.60;;
7211;SDS011;3647;48.792;9.802;2023-04-16T10:24:17;8.00;;;5.80;;
7211;SDS011;3647;48.792;9.802;2023-04-16T16:39:44;6.33;;;5.73;;
7211;SDS011;3647;48.792;9.802;2023-04-16T16:42:11;7.77;;;6.23;;
7211;SDS011;3647;48.792;9.802;2023-04-16T16:44:40;7.63;;;6.53;;
7211;SDS011;3647;48.792;9.802;2023-04-16T16:47:07;7.87;;;6.10;;
7211;SDS011;3647;48.792;9.802;2023-04-16T16:49:34;6.73;;;6.00;;
7211;SDS011;3647;48.792;9.802;2023-04-16T16:52:01;9.57;;;6.73;;
7211;SDS011;3647;48.792;9.802;2023-04-16T16:54:27;9.07;;;7.87;;
7211;SDS011;3647;48.792;9.802;2023-04-16T16:56:56;8.00;;;6.87;;
7211;SDS011;3647;48.792;9.802;2023-04-16T16:59:22;7.43;;;6.73;;
7211;SDS011;3647;48.792;9.802;2023-04-16T17:01:50;9.00;;;7.20;;
7211;SDS011;3647;48.792;9.802;2023-04-16T17:04:17;10.27;;;6.73;;
7211;SDS011;3647;48.792;9.802;2023-04-16T17:06:43;7.90;;;7.07;;
7211;SDS011;3647;48.792;9.802;2023-04-16T17:09:10;8.83;;;7.57;;
7211;SDS011;3647;48.792;9.802;2023-04-16T17:11:37;7.63;;;6.43;;
7211;SDS011;3647;48.792;9.802;2023-04-16T17:14:05;9.47;;;7.43;;
7211;SDS011;3647;48.792;9.802;2023-04-16T17:16:32;7.93;;;6.40;;
7211;SDS011;3647;48.792;9.802;2023-04-16T17:18:59;11.37;;;7.77;;
7211;SDS011;3647;48.792;9.802;2023-04-16T17:21:26;8.20;;;6.63;;
7211;SDS011;3647;48.792;9.802;2023-04-16T17:23:52;8.27;;;7.03;;
7211;SDS011;3647;48.792;9.802;2023-04-16T17:26:22;8.90;;;6.93;;
7211;SDS011;3647;48.792;9.802;2023-04-16T17:28:48;10.53;;;7.53;;
7211;SDS011;3647;48.792;9.802;2023-04-16T17:31:17;8.60;;;6.23;;
7211;SDS011;3647;48.792;9.802;2023-04-16T17:33:44;8.47;;;7.03;;
7211;SDS011;3647;48.792;9.802;2023-04-16T17:36:10;11.03;;;7.60;;
7211;SDS011;3647;48.792;9.802;2023-04-16T17:38:37;9.97;;;6.87;;
7211;SDS011;3647;48.792;9.802;2023-04-16T17:41:05;8.17;;;7.03;;
7211;SDS011;3647;48.792;9.802;2023-04-16T17:43:32;10.50;;;7.37;;
7211;SDS011;3647;48.792;9.802;2023-04-16T17:45:59;8.73;;;7.30;;
7211;SDS011;3647;48.792;9.802;2023-04-16T17:48:27;10.60;;;6.87;;
7211;SDS011;3647;48.792;9.802;2023-04-16T17:50:54;10.77;;;7.07;;
7211;SDS011;3647;48.792;9.802;2023-04-16T17:53:21;11.03;;;7.70;;
7211;SDS011;3647;48.792;9.802;2023-04-16T17:55:50;17.73;;;10.80;;
7211;SDS011;3647;48.792;9.802;2023-04-16T17:58:17;26.83;;;14.97;;
7211;SDS011;3647;48.792;9.802;2023-04-16T18:00:44;16.27;;;12.07;;
7211;SDS011;3647;48.792;9.802;2023-04-16T18:03:11;14.00;;;11.00;;
7211;SDS011;3647;48.792;9.802;2023-04-16T18:05:40;14.27;;;10.00;;
7211;SDS011;3647;48.792;9.802;2023-04-16T18:08:06;11.10;;;8.50;;
7211;SDS011;3647;48.792;9.802;2023-04-16T18:10:33;12.47;;;10.13;;
7211;SDS011;3647;48.792;9.802;2023-04-16T18:13:00;10.50;;;7.57;;
7211;SDS011;3647;48.792;9.802;2023-04-16T18:15:27;8.97;;;7.90;;
7211;SDS011;3647;48.792;9.802;2023-04-16T18:17:53;9.37;;;7.57;;
7211;SDS011;3647;48.792;9.802;2023-04-16T18:20:20;14.10;;;9.70;;
7211;SDS011;3647;48.792;9.802;2023-04-16T18:22:48;13.97;;;9.27;;
7211;SDS011;3647;48.792;9.802;2023-04-16T18:25:15;11.63;;;8.77;;
7211;SDS011;3647;48.792;9.802;2023-04-16T18:27:42;9.33;;;7.30;;
7211;SDS011;3647;48.792;9.802;2023-04-16T18:30:09;9.83;;;7.70;;
7211;SDS011;3647;48.792;9.802;2023-04-16T18:32:36;8.60;;;7.70;;
7211;SDS011;3647;48.792;9.802;2023-04-16T18:35:04;10.17;;;8.13;;
7211;SDS011;3647;48.792;9.802;2023-04-16T18:37:31;8.27;;;7.10;;
7211;SDS011;3647;48.792;9.802;2023-04-16T18:39:59;8.70;;;6.70;;
7211;SDS011;3647;48.792;9.802;2023-04-16T18:42:26;9.00;;;7.10;;
7211;SDS011;3647;48.792;9.802;2023-04-16T18:44:53;10.13;;;7.40;;
7211;SDS011;3647;48.792;9.802;2023-04-16T18:47:20;8.17;;;7.37;;
7211;SDS011;3647;48.792;9.802;2023-04-16T18:49:47;8.17;;;7.37;;
7211;SDS011;3647;48.792;9.802;2023-04-16T18:52:14;8.00;;;7.20;;
7211;SDS011;3647;48.792;9.802;2023-04-16T18:54:41;11.73;;;8.67;;
7211;SDS011;3647;48.792;9.802;2023-04-16T18:57:10;9.83;;;8.43;;
7211;SDS011;3647;48.792;9.802;2023-04-16T18:59:36;8.70;;;7.80;;
7211;SDS011;3647;48.792;9.802;2023-04-16T19:02:03;9.20;;;7.60;;
7211;SDS011;3647;48.792;9.802;2023-04-16T19:04:30;8.23;;;6.90;;
7211;SDS011;3647;48.792;9.802;2023-04-16T19:06:56;8.13;;;6.73;;
7211;SDS011;3647;48.792;9.802;2023-04-16T19:09:23;8.27;;;6.93;;
7211;SDS011;3647;48.792;9.802;2023-04-16T19:11:51;7.30;;;6.60;;
7211;SDS011;3647;48.792;9.802;2023-04-16T19:14:19;7.57;;;5.97;;
7211;SDS011;3647;48.792;9.802;2023-04-16T19:16:46;7.10;;;6.40;;
7211;SDS011;3647;48.792;9.802;2023-04-16T19:19:12;6.57;;;5.97;;
7211;SDS011;3647;48.792;9.802;2023-04-16T19:21:39;7.53;;;6.80;;
7211;SDS011;3647;48.792;9.802;2023-04-16T19:24:06;7.07;;;6.37;;
7211;SDS011;3647;48.792;9.802;2023-04-16T19:26:33;7.37;;;6.43;;
7211;SDS011;3647;48.792;9.802;2023-04-16T19:28:59;8.43;;;7.17;;
7211;SDS011;3647;48.792;9.802;2023-04-16T19:31:27;8.70;;;7.63;;
7211;SDS011;3647;48.792;9.802;2023-04-16T19:33:54;8.13;;;6.57;;
7211;SDS011;3647;48.792;9.802;2023-04-16T19:36:21;8.77;;;6.87;;
7211;SDS011;3647;48.792;9.802;2023-04-16T19:38:48;8.10;;;6.60;;
7211;SDS011;3647;48.792;9.802;2023-04-16T19:41:15;7.30;;;6.00;;
7211;SDS011;3647;48.792;9.802;2023-04-16T19:43:41;7.57;;;6.53;;
7211;SDS011;3647;48.792;9.802;2023-04-16T19:46:08;6.70;;;5.70;;
7211;SDS011;3647;48.792;9.802;2023-04-16T19:48:36;8.03;;;6.30;;
7211;SDS011;3647;48.792;9.802;2023-04-16T19:51:03;8.90;;;6.07;;
7211;SDS011;3647;48.792;9.802;2023-04-16T19:53:30;7.97;;;6.37;;
7211;SDS011;3647;48.792;9.802;2023-04-16T19:55:58;7.67;;;6.30;;
7211;SDS011;3647;48.792;9.802;2023-04-16T19:58:25;7.03;;;6.30;;
7211;SDS011;3647;48.792;9.802;2023-04-16T20:00:52;8.37;;;6.63;;
7211;SDS011;3647;48.792;9.802;2023-04-16T20:03:19;9.23;;;6.93;;
7211;SDS011;3647;48.792;9.802;2023-04-16T20:05:48;8.03;;;6.43;;
7211;SDS011;3647;48.792;9.802;2023-04-16T20:08:15;7.43;;;6.07;;
7211;SDS011;3647;48.792;9.802;2023-04-16T20:10:41;7.43;;;6.20;;
7211;SDS011;3647;48.792;9.802;2023-04-16T20:13:09;9.37;;;7.13;;
7211;SDS011;3647;48.792;9.802;2023-04-16T20:15:37;9.10;;;7.30;;
7211;SDS011;3647;48.792;9.802;2023-04-16T20:18:04;9.07;;;7.07;;
7211;SDS011;3647;48.792;9.802;2023-04-16T20:20:33;9.20;;;7.13;;
7211;SDS011;3647;48.792;9.802;2023-04-16T20:23:01;8.97;;;7.00;;
7211;SDS011;3647;48.792;9.802;2023-04-16T20:25:28;7.33;;;6.50;;
7211;SDS011;3647;48.792;9.802;2023-04-16T20:27:55;8.47;;;6.53;;
7211;SDS011;3647;48.792;9.802;2023-04-16T20:30:22;8.17;;;6.87;;
7211;SDS011;3647;48.792;9.802;2023-04-16T20:32:53;9.20;;;7.10;;
7211;SDS011;3647;48.792;9.802;2023-04-16T20:35:20;8.13;;;7.23;;
7211;SDS011;3647;48.792;9.802;2023-04-16T20:37:46;7.07;;;6.23;;
7211;SDS011;3647;48.792;9.802;2023-04-16T20:40:15;8.03;;;7.20;;
7211;SDS011;3647;48.792;9.802;2023-04-16T20:42:41;8.60;;;6.70;;
7211;SDS011;3647;48.792;9.802;2023-04-16T20:45:10;8.03;;;7.23;;
7211;SDS011;3647;48.792;9.802;2023-04-16T20:47:37;8.20;;;6.73;;
7211;SDS011;3647;48.792;9.802;2023-04-16T20:50:04;8.47;;;6.17;;
7211;SDS011;3647;48.792;9.802;2023-04-16T20:52:31;8.10;;;6.30;;
7211;SDS011;3647;48.792;9.802;2023-04-16T20:54:58;9.17;;;7.37;;
7211;SDS011;3647;48.792;9.802;2023-04-16T20:57:26;8.60;;;7.30;;
7211;SDS011;3647;48.792;9.802;2023-04-16T20:59:53;10.53;;;8.63;;
7211;SDS011;3647;48.792;9.802;2023-04-16T21:02:20;11.40;;;8.63;;
7211;SDS011;3647;48.792;9.802;2023-04-16T21:04:48;8.80;;;7.47;;
7211;SDS011;3647;48.792;9.802;2023-04-16T21:07:14;10.33;;;7.73;;
7211;SDS011;3647;48.792;9.802;2023-04-16T21:09:41;11.53;;;7.50;;
7211;SDS011;3647;48.792;9.802;2023-04-16T21:12:08;10.90;;;8.10;;
7211;SDS011;3647;48.792;9.802;2023-04-16T21:14:36;9.73;;;7.67;;
7211;SDS011;3647;48.792;9.802;2023-04-16T21:17:03;10.77;;;7.90;;
7211;SDS011;3647;48.792;9.802;2023-04-16T21:19:29;8.80;;;6.77;;
7211;SDS011;3647;48.792;9.802;2023-04-16T21:21:56;7.83;;;6.23;;
7211;SDS011;3647;48.792;9.802;2023-04-16T21:24:23;8.13;;;7.17;;
7211;SDS011;3647;48.792;9.802;2023-04-16T21:26:50;9.20;;;7.27;;
